sensor_id;sensor_type;location;lat;lon;timestamp;P1;durP1;ratioP1;P2;durP2;ratioP2
16460;SDS011;8341;42.048;24.650;2024-03-08T00:02:34;74.03;;;31.40;;
16460;SDS011;8341;42.048;24.650;2024-03-08T00:05:01;363.50;;;40.47;;
16460;SDS011;8341;42.048;24.650;2024-03-08T00:07:29;69.70;;;31.75;;
16460;SDS011;8341;42.048;24.650;2024-03-08T00:09:56;193.75;;;36.17;;
16460;SDS011;8341;42.048;24.650;2024-03-08T00:12:24;66.18;;;30.23;;
16460;SDS011;8341;42.048;24.650;2024-03-08T00:14:52;96.80;;;32.08;;
16460;SDS011;8341;42.048;24.650;2024-03-08T00:17:19;64.68;;;31.20;;
16460;SDS011;8341;42.048;24.650;2024-03-08T00:19:48;69.65;;;31.40;;
16460;SDS011;8341;42.048;24.650;2024-03-08T00:22:15;79.13;;;32.72;;
16460;SDS011;8341;42.048;24.650;2024-03-08T00:24:42;467.00;;;42.83;;
16460;SDS011;8341;42.048;24.650;2024-03-08T00:27:10;143.32;;;32.58;;
16460;SDS011;8341;42.048;24.650;2024-03-08T00:29:39;79.72;;;30.17;;
16460;SDS011;8341;42.048;24.650;2024-03-08T00:32:06;62.92;;;29.48;;
16460;SDS011;8341;42.048;24.650;2024-03-08T00:34:35;66.15;;;31.30;;
16460;SDS011;8341;42.048;24.650;2024-03-08T00:37:03;63.33;;;29.88;;
16460;SDS011;8341;42.048;24.650;2024-03-08T00:39:30;70.47;;;29.88;;
16460;SDS011;8341;42.048;24.650;2024-03-08T00:41:57;64.07;;;30.33;;
16460;SDS011;8341;42.048;24.650;2024-03-08T00:44:24;60.15;;;28.63;;
16460;SDS011;8341;42.048;24.650;2024-03-08T00:46:52;66.90;;;30.65;;
16460;SDS011;8341;42.048;24.650;2024-03-08T00:49:19;58.42;;;28.90;;
16460;SDS011;8341;42.048;24.650;2024-03-08T00:51:47;60.53;;;28.60;;
16460;SDS011;8341;42.048;24.650;2024-03-08T00:54:13;60.13;;;29.35;;
16460;SDS011;8341;42.048;24.650;2024-03-08T00:56:41;63.10;;;30.63;;
16460;SDS011;8341;42.048;24.650;2024-03-08T00:59:08;59.72;;;27.30;;
16460;SDS011;8341;42.048;24.650;2024-03-08T01:01:35;61.33;;;28.35;;
16460;SDS011;8341;42.048;24.650;2024-03-08T01:04:04;62.35;;;29.45;;
16460;SDS011;8341;42.048;24.650;2024-03-08T01:06:31;65.20;;;30.83;;
16460;SDS011;8341;42.048;24.650;2024-03-08T01:08:58;63.85;;;29.52;;
16460;SDS011;8341;42.048;24.650;2024-03-08T01:11:26;67.50;;;31.27;;
16460;SDS011;8341;42.048;24.650;2024-03-08T01:13:53;65.63;;;29.90;;
16460;SDS011;8341;42.048;24.650;2024-03-08T01:16:20;78.15;;;30.88;;
16460;SDS011;8341;42.048;24.650;2024-03-08T01:18:47;184.05;;;33.42;;
16460;SDS011;8341;42.048;24.650;2024-03-08T01:21:16;225.02;;;32.85;;
16460;SDS011;8341;42.048;24.650;2024-03-08T01:23:43;215.15;;;33.28;;
16460;SDS011;8341;42.048;24.650;2024-03-08T01:26:10;201.68;;;33.38;;
16460;SDS011;8341;42.048;24.650;2024-03-08T01:28:37;70.93;;;30.02;;
16460;SDS011;8341;42.048;24.650;2024-03-08T01:31:04;66.28;;;29.35;;
16460;SDS011;8341;42.048;24.650;2024-03-08T01:33:31;105.72;;;31.38;;
16460;SDS011;8341;42.048;24.650;2024-03-08T01:35:58;73.57;;;31.08;;
16460;SDS011;8341;42.048;24.650;2024-03-08T01:38:26;220.82;;;35.30;;
16460;SDS011;8341;42.048;24.650;2024-03-08T01:40:53;272.35;;;36.58;;
16460;SDS011;8341;42.048;24.650;2024-03-08T01:43:20;148.77;;;32.35;;
16460;SDS011;8341;42.048;24.650;2024-03-08T01:45:49;69.50;;;28.63;;
16460;SDS011;8341;42.048;24.650;2024-03-08T01:48:16;70.90;;;31.35;;
16460;SDS011;8341;42.048;24.650;2024-03-08T01:50:44;80.60;;;29.42;;
16460;SDS011;8341;42.048;24.650;2024-03-08T01:53:12;137.27;;;31.45;;
16460;SDS011;8341;42.048;24.650;2024-03-08T01:55:41;86.18;;;29.88;;
16460;SDS011;8341;42.048;24.650;2024-03-08T01:58:11;69.90;;;29.17;;
16460;SDS011;8341;42.048;24.650;2024-03-08T02:00:40;64.70;;;29.08;;
16460;SDS011;8341;42.048;24.650;2024-03-08T02:03:10;78.55;;;28.98;;
16460;SDS011;8341;42.048;24.650;2024-03-08T02:05:37;92.35;;;29.42;;
16460;SDS011;8341;42.048;24.650;2024-03-08T02:08:05;57.60;;;27.63;;
16460;SDS011;8341;42.048;24.650;2024-03-08T02:10:37;59.95;;;28.52;;
16460;SDS011;8341;42.048;24.650;2024-03-08T02:13:06;62.55;;;28.10;;
16460;SDS011;8341;42.048;24.650;2024-03-08T02:15:52;59.22;;;27.10;;
16460;SDS011;8341;42.048;24.650;2024-03-08T02:18:20;298.98;;;32.00;;
16460;SDS011;8341;42.048;24.650;2024-03-08T02:20:49;63.58;;;26.85;;
16460;SDS011;8341;42.048;24.650;2024-03-08T02:23:16;58.42;;;27.58;;
16460;SDS011;8341;42.048;24.650;2024-03-08T02:25:43;60.35;;;26.73;;
16460;SDS011;8341;42.048;24.650;2024-03-08T02:28:10;56.58;;;27.52;;
16460;SDS011;8341;42.048;24.650;2024-03-08T02:30:38;58.85;;;27.73;;
16460;SDS011;8341;42.048;24.650;2024-03-08T02:33:05;65.45;;;27.33;;
16460;SDS011;8341;42.048;24.650;2024-03-08T02:35:34;57.22;;;26.42;;
16460;SDS011;8341;42.048;24.650;2024-03-08T02:38:03;59.83;;;26.95;;
16460;SDS011;8341;42.048;24.650;2024-03-08T02:40:30;56.40;;;26.67;;
16460;SDS011;8341;42.048;24.650;2024-03-08T02:42:57;54.38;;;25.38;;
16460;SDS011;8341;42.048;24.650;2024-03-08T02:45:24;59.55;;;26.70;;
16460;SDS011;8341;42.048;24.650;2024-03-08T02:47:51;126.47;;;26.83;;
16460;SDS011;8341;42.048;24.650;2024-03-08T02:50:18;130.40;;;26.38;;
16460;SDS011;8341;42.048;24.650;2024-03-08T02:52:45;171.48;;;27.08;;
16460;SDS011;8341;42.048;24.650;2024-03-08T02:55:14;168.82;;;28.83;;
16460;SDS011;8341;42.048;24.650;2024-03-08T02:57:41;85.43;;;25.75;;
16460;SDS011;8341;42.048;24.650;2024-03-08T03:00:09;120.20;;;27.10;;
16460;SDS011;8341;42.048;24.650;2024-03-08T03:02:38;246.87;;;30.60;;
16460;SDS011;8341;42.048;24.650;2024-03-08T03:05:05;65.47;;;24.73;;
16460;SDS011;8341;42.048;24.650;2024-03-08T03:07:34;49.55;;;23.73;;
16460;SDS011;8341;42.048;24.650;2024-03-08T03:10:02;51.53;;;23.38;;
16460;SDS011;8341;42.048;24.650;2024-03-08T03:12:31;47.20;;;21.17;;
16460;SDS011;8341;42.048;24.650;2024-03-08T03:14:59;48.20;;;21.35;;
16460;SDS011;8341;42.048;24.650;2024-03-08T03:17:26;47.17;;;21.40;;
16460;SDS011;8341;42.048;24.650;2024-03-08T03:19:54;43.78;;;20.02;;
16460;SDS011;8341;42.048;24.650;2024-03-08T03:22:21;49.45;;;21.42;;
16460;SDS011;8341;42.048;24.650;2024-03-08T03:24:48;50.20;;;21.45;;
16460;SDS011;8341;42.048;24.650;2024-03-08T03:27:16;47.38;;;20.15;;
16460;SDS011;8341;42.048;24.650;2024-03-08T03:29:46;50.30;;;21.10;;
16460;SDS011;8341;42.048;24.650;2024-03-08T03:32:14;42.15;;;19.05;;
16460;SDS011;8341;42.048;24.650;2024-03-08T03:34:43;41.15;;;18.48;;
16460;SDS011;8341;42.048;24.650;2024-03-08T03:37:11;44.45;;;21.20;;
16460;SDS011;8341;42.048;24.650;2024-03-08T03:39:38;37.78;;;17.80;;
16460;SDS011;8341;42.048;24.650;2024-03-08T03:42:14;32.72;;;16.50;;
16460;SDS011;8341;42.048;24.650;2024-03-08T03:44:41;36.75;;;16.95;;
16460;SDS011;8341;42.048;24.650;2024-03-08T03:47:11;35.55;;;18.60;;
16460;SDS011;8341;42.048;24.650;2024-03-08T03:49:38;30.75;;;16.33;;
16460;SDS011;8341;42.048;24.650;2024-03-08T03:52:05;37.40;;;18.48;;
16460;SDS011;8341;42.048;24.650;2024-03-08T03:54:32;35.25;;;17.45;;
16460;SDS011;8341;42.048;24.650;2024-03-08T03:56:59;33.35;;;16.40;;
16460;SDS011;8341;42.048;24.650;2024-03-08T03:59:27;36.40;;;18.02;;
16460;SDS011;8341;42.048;24.650;2024-03-08T04:01:54;33.38;;;17.10;;
16460;SDS011;8341;42.048;24.650;2024-03-08T04:04:23;34.72;;;16.80;;
16460;SDS011;8341;42.048;24.650;2024-03-08T04:06:50;27.38;;;15.80;;
16460;SDS011;8341;42.048;24.650;2024-03-08T04:09:17;33.40;;;16.77;;
16460;SDS011;8341;42.048;24.650;2024-03-08T04:11:44;36.40;;;18.63;;
16460;SDS011;8341;42.048;24.650;2024-03-08T04:14:11;37.45;;;16.95;;
16460;SDS011;8341;42.048;24.650;2024-03-08T04:16:38;31.75;;;14.80;;
16460;SDS011;8341;42.048;24.650;2024-03-08T04:19:05;26.38;;;14.27;;
16460;SDS011;8341;42.048;24.650;2024-03-08T04:21:35;29.02;;;14.50;;
16460;SDS011;8341;42.048;24.650;2024-03-08T04:24:02;29.33;;;16.45;;
16460;SDS011;8341;42.048;24.650;2024-03-08T04:26:29;29.10;;;14.90;;
16460;SDS011;8341;42.048;24.650;2024-03-08T04:28:56;33.53;;;16.73;;
16460;SDS011;8341;42.048;24.650;2024-03-08T04:31:22;33.65;;;16.48;;
16460;SDS011;8341;42.048;24.650;2024-03-08T04:33:51;35.43;;;17.13;;
16460;SDS011;8341;42.048;24.650;2024-03-08T04:36:18;28.43;;;16.30;;
16460;SDS011;8341;42.048;24.650;2024-03-08T04:38:47;82.53;;;18.50;;
16460;SDS011;8341;42.048;24.650;2024-03-08T04:41:13;93.10;;;16.97;;
16460;SDS011;8341;42.048;24.650;2024-03-08T04:43:41;316.93;;;25.43;;
16460;SDS011;8341;42.048;24.650;2024-03-08T04:46:07;182.50;;;21.05;;
16460;SDS011;8341;42.048;24.650;2024-03-08T04:48:34;89.37;;;18.13;;
16460;SDS011;8341;42.048;24.650;2024-03-08T04:51:02;41.60;;;16.43;;
16460;SDS011;8341;42.048;24.650;2024-03-08T04:53:30;111.23;;;17.97;;
16460;SDS011;8341;42.048;24.650;2024-03-08T04:56:00;324.37;;;27.23;;
16460;SDS011;8341;42.048;24.650;2024-03-08T04:58:31;499.13;;;33.90;;
16460;SDS011;8341;42.048;24.650;2024-03-08T05:00:59;232.93;;;22.53;;
16460;SDS011;8341;42.048;24.650;2024-03-08T05:03:26;604.50;;;45.67;;
16460;SDS011;8341;42.048;24.650;2024-03-08T05:05:55;849.30;;;55.13;;
16460;SDS011;8341;42.048;24.650;2024-03-08T05:08:22;1015.50;;;71.33;;
16460;SDS011;8341;42.048;24.650;2024-03-08T05:10:49;1008.93;;;68.00;;
16460;SDS011;8341;42.048;24.650;2024-03-08T05:13:17;991.60;;;64.63;;
16460;SDS011;8341;42.048;24.650;2024-03-08T05:15:47;874.50;;;62.00;;
16460;SDS011;8341;42.048;24.650;2024-03-08T05:18:15;721.60;;;54.73;;
16460;SDS011;8341;42.048;24.650;2024-03-08T05:20:42;690.77;;;52.53;;
16460;SDS011;8341;42.048;24.650;2024-03-08T05:23:09;798.43;;;61.70;;
16460;SDS011;8341;42.048;24.650;2024-03-08T05:25:36;743.37;;;54.13;;
16460;SDS011;8341;42.048;24.650;2024-03-08T05:28:03;774.20;;;54.17;;
16460;SDS011;8341;42.048;24.650;2024-03-08T05:30:32;588.27;;;46.70;;
16460;SDS011;8341;42.048;24.650;2024-03-08T05:32:58;959.07;;;70.47;;
16460;SDS011;8341;42.048;24.650;2024-03-08T05:35:25;681.00;;;45.13;;
16460;SDS011;8341;42.048;24.650;2024-03-08T05:37:52;919.50;;;53.53;;
16460;SDS011;8341;42.048;24.650;2024-03-08T05:40:19;674.53;;;42.57;;
16460;SDS011;8341;42.048;24.650;2024-03-08T05:42:46;605.80;;;40.53;;
16460;SDS011;8341;42.048;24.650;2024-03-08T05:45:15;305.07;;;28.43;;
16460;SDS011;8341;42.048;24.650;2024-03-08T05:47:43;245.07;;;26.63;;
16460;SDS011;8341;42.048;24.650;2024-03-08T05:50:11;353.00;;;29.67;;
16460;SDS011;8341;42.048;24.650;2024-03-08T05:52:38;255.90;;;26.57;;
16460;SDS011;8341;42.048;24.650;2024-03-08T05:55:05;222.93;;;24.73;;
16460;SDS011;8341;42.048;24.650;2024-03-08T05:57:35;204.00;;;26.40;;
16460;SDS011;8341;42.048;24.650;2024-03-08T06:00:05;424.80;;;36.70;;
16460;SDS011;8341;42.048;24.650;2024-03-08T06:02:36;187.20;;;24.23;;
16460;SDS011;8341;42.048;24.650;2024-03-08T06:05:08;82.03;;;20.90;;
16460;SDS011;8341;42.048;24.650;2024-03-08T06:07:36;323.03;;;29.00;;
16460;SDS011;8341;42.048;24.650;2024-03-08T06:10:06;198.43;;;25.97;;
16460;SDS011;8341;42.048;24.650;2024-03-08T06:12:35;202.27;;;26.07;;
16460;SDS011;8341;42.048;24.650;2024-03-08T06:15:05;548.97;;;38.40;;
16460;SDS011;8341;42.048;24.650;2024-03-08T06:17:33;577.03;;;40.70;;
16460;SDS011;8341;42.048;24.650;2024-03-08T06:20:00;784.23;;;50.87;;
16460;SDS011;8341;42.048;24.650;2024-03-08T06:22:30;830.00;;;51.93;;
16460;SDS011;8341;42.048;24.650;2024-03-08T06:24:57;853.67;;;55.40;;
16460;SDS011;8341;42.048;24.650;2024-03-08T06:27:24;737.23;;;45.93;;
16460;SDS011;8341;42.048;24.650;2024-03-08T06:29:51;719.57;;;49.60;;
16460;SDS011;8341;42.048;24.650;2024-03-08T06:32:17;325.70;;;33.17;;
16460;SDS011;8341;42.048;24.650;2024-03-08T06:34:45;415.80;;;33.33;;
16460;SDS011;8341;42.048;24.650;2024-03-08T06:37:11;360.97;;;29.90;;
16460;SDS011;8341;42.048;24.650;2024-03-08T06:39:41;124.23;;;22.03;;
16460;SDS011;8341;42.048;24.650;2024-03-08T06:42:09;336.00;;;30.57;;
16460;SDS011;8341;42.048;24.650;2024-03-08T06:44:37;417.17;;;33.63;;
16460;SDS011;8341;42.048;24.650;2024-03-08T06:47:13;61.03;;;18.67;;
16460;SDS011;8341;42.048;24.650;2024-03-08T06:49:43;110.83;;;21.57;;
16460;SDS011;8341;42.048;24.650;2024-03-08T06:52:10;509.93;;;37.43;;
16460;SDS011;8341;42.048;24.650;2024-03-08T06:54:37;524.47;;;38.60;;
16460;SDS011;8341;42.048;24.650;2024-03-08T06:57:07;42.43;;;18.80;;
16460;SDS011;8341;42.048;24.650;2024-03-08T06:59:35;38.10;;;18.00;;
16460;SDS011;8341;42.048;24.650;2024-03-08T07:02:02;106.17;;;21.87;;
16460;SDS011;8341;42.048;24.650;2024-03-08T07:04:30;236.90;;;25.03;;
16460;SDS011;8341;42.048;24.650;2024-03-08T07:06:58;180.87;;;24.27;;
16460;SDS011;8341;42.048;24.650;2024-03-08T07:09:27;401.60;;;35.27;;
16460;SDS011;8341;42.048;24.650;2024-03-08T07:11:54;555.87;;;39.77;;
16460;SDS011;8341;42.048;24.650;2024-03-08T07:14:23;65.90;;;21.60;;
16460;SDS011;8341;42.048;24.650;2024-03-08T07:16:50;58.53;;;19.70;;
16460;SDS011;8341;42.048;24.650;2024-03-08T07:19:18;43.50;;;20.17;;
16460;SDS011;8341;42.048;24.650;2024-03-08T07:21:46;37.00;;;19.35;;
16460;SDS011;8341;42.048;24.650;2024-03-08T07:24:13;38.88;;;20.08;;
16460;SDS011;8341;42.048;24.650;2024-03-08T07:26:58;35.35;;;17.98;;
16460;SDS011;8341;42.048;24.650;2024-03-08T07:29:26;30.73;;;16.83;;
16460;SDS011;8341;42.048;24.650;2024-03-08T07:31:53;32.00;;;16.95;;
16460;SDS011;8341;42.048;24.650;2024-03-08T07:34:27;27.35;;;16.13;;
16460;SDS011;8341;42.048;24.650;2024-03-08T07:36:57;32.03;;;16.48;;
16460;SDS011;8341;42.048;24.650;2024-03-08T07:39:24;26.00;;;14.45;;
16460;SDS011;8341;42.048;24.650;2024-03-08T07:41:51;29.52;;;15.55;;
16460;SDS011;8341;42.048;24.650;2024-03-08T07:44:20;25.50;;;14.80;;
16460;SDS011;8341;42.048;24.650;2024-03-08T07:46:48;28.85;;;15.02;;
16460;SDS011;8341;42.048;24.650;2024-03-08T07:49:15;26.15;;;14.82;;
16460;SDS011;8341;42.048;24.650;2024-03-08T07:51:43;27.45;;;15.52;;
16460;SDS011;8341;42.048;24.650;2024-03-08T07:54:10;25.45;;;14.82;;
16460;SDS011;8341;42.048;24.650;2024-03-08T07:56:37;25.05;;;14.23;;
16460;SDS011;8341;42.048;24.650;2024-03-08T07:59:04;24.30;;;14.13;;
16460;SDS011;8341;42.048;24.650;2024-03-08T08:01:31;24.20;;;13.70;;
16460;SDS011;8341;42.048;24.650;2024-03-08T08:04:00;27.83;;;14.20;;
16460;SDS011;8341;42.048;24.650;2024-03-08T08:06:27;25.35;;;14.95;;
16460;SDS011;8341;42.048;24.650;2024-03-08T08:08:57;24.58;;;13.55;;
16460;SDS011;8341;42.048;24.650;2024-03-08T08:11:25;24.80;;;14.38;;
16460;SDS011;8341;42.048;24.650;2024-03-08T08:13:53;29.73;;;15.52;;
16460;SDS011;8341;42.048;24.650;2024-03-08T08:16:22;27.05;;;14.02;;
16460;SDS011;8341;42.048;24.650;2024-03-08T08:18:51;23.92;;;13.85;;
16460;SDS011;8341;42.048;24.650;2024-03-08T08:21:21;23.15;;;13.30;;
16460;SDS011;8341;42.048;24.650;2024-03-08T08:23:50;19.23;;;11.52;;
16460;SDS011;8341;42.048;24.650;2024-03-08T08:26:17;19.98;;;12.50;;
16460;SDS011;8341;42.048;24.650;2024-03-08T08:28:44;18.88;;;12.43;;
16460;SDS011;8341;42.048;24.650;2024-03-08T08:31:12;23.27;;;14.15;;
16460;SDS011;8341;42.048;24.650;2024-03-08T08:33:38;18.00;;;11.10;;
16460;SDS011;8341;42.048;24.650;2024-03-08T08:36:06;14.23;;;9.82;;
16460;SDS011;8341;42.048;24.650;2024-03-08T08:38:35;15.07;;;10.40;;
16460;SDS011;8341;42.048;24.650;2024-03-08T08:41:01;15.70;;;10.75;;
16460;SDS011;8341;42.048;24.650;2024-03-08T08:43:29;16.98;;;11.82;;
16460;SDS011;8341;42.048;24.650;2024-03-08T08:45:55;22.08;;;14.98;;
16460;SDS011;8341;42.048;24.650;2024-03-08T08:48:22;23.38;;;14.85;;
16460;SDS011;8341;42.048;24.650;2024-03-08T08:50:50;25.75;;;14.82;;
16460;SDS011;8341;42.048;24.650;2024-03-08T08:53:17;20.50;;;14.18;;
16460;SDS011;8341;42.048;24.650;2024-03-08T08:55:46;25.40;;;15.05;;
16460;SDS011;8341;42.048;24.650;2024-03-08T08:58:13;23.40;;;15.93;;
16460;SDS011;8341;42.048;24.650;2024-03-08T09:00:40;26.80;;;16.85;;
16460;SDS011;8341;42.048;24.650;2024-03-08T09:03:09;25.58;;;16.58;;
16460;SDS011;8341;42.048;24.650;2024-03-08T09:05:37;30.05;;;18.33;;
16460;SDS011;8341;42.048;24.650;2024-03-08T09:08:04;30.92;;;18.85;;
16460;SDS011;8341;42.048;24.650;2024-03-08T09:10:33;31.17;;;18.30;;
16460;SDS011;8341;42.048;24.650;2024-03-08T09:13:01;33.58;;;20.10;;
16460;SDS011;8341;42.048;24.650;2024-03-08T09:15:29;38.90;;;23.00;;
16460;SDS011;8341;42.048;24.650;2024-03-08T09:17:59;40.47;;;20.98;;
16460;SDS011;8341;42.048;24.650;2024-03-08T09:20:26;36.53;;;20.27;;
16460;SDS011;8341;42.048;24.650;2024-03-08T09:22:54;37.75;;;20.80;;
16460;SDS011;8341;42.048;24.650;2024-03-08T09:25:22;46.55;;;24.45;;
16460;SDS011;8341;42.048;24.650;2024-03-08T09:27:49;41.05;;;21.70;;
16460;SDS011;8341;42.048;24.650;2024-03-08T09:30:17;38.42;;;20.52;;
16460;SDS011;8341;42.048;24.650;2024-03-08T09:32:46;42.17;;;21.30;;
16460;SDS011;8341;42.048;24.650;2024-03-08T09:35:16;43.35;;;22.23;;
16460;SDS011;8341;42.048;24.650;2024-03-08T09:37:43;39.40;;;21.25;;
16460;SDS011;8341;42.048;24.650;2024-03-08T09:40:12;44.00;;;22.35;;
16460;SDS011;8341;42.048;24.650;2024-03-08T09:42:40;44.83;;;22.90;;
16460;SDS011;8341;42.048;24.650;2024-03-08T09:45:08;42.33;;;22.27;;
16460;SDS011;8341;42.048;24.650;2024-03-08T09:47:39;46.05;;;23.25;;
16460;SDS011;8341;42.048;24.650;2024-03-08T09:50:07;44.10;;;22.35;;
16460;SDS011;8341;42.048;24.650;2024-03-08T09:52:35;48.13;;;24.75;;
16460;SDS011;8341;42.048;24.650;2024-03-08T09:55:04;46.92;;;24.50;;
16460;SDS011;8341;42.048;24.650;2024-03-08T09:57:32;45.50;;;23.60;;
16460;SDS011;8341;42.048;24.650;2024-03-08T09:59:59;53.28;;;25.60;;
16460;SDS011;8341;42.048;24.650;2024-03-08T10:02:26;51.72;;;25.50;;
16460;SDS011;8341;42.048;24.650;2024-03-08T10:04:55;42.25;;;22.10;;
16460;SDS011;8341;42.048;24.650;2024-03-08T10:07:24;44.75;;;23.92;;
16460;SDS011;8341;42.048;24.650;2024-03-08T10:09:51;42.58;;;21.63;;
16460;SDS011;8341;42.048;24.650;2024-03-08T10:12:19;45.28;;;24.30;;
16460;SDS011;8341;42.048;24.650;2024-03-08T10:14:46;44.88;;;22.95;;
16460;SDS011;8341;42.048;24.650;2024-03-08T10:17:13;41.65;;;22.20;;
16460;SDS011;8341;42.048;24.650;2024-03-08T10:19:48;41.53;;;21.65;;
16460;SDS011;8341;42.048;24.650;2024-03-08T10:22:18;42.03;;;22.13;;
16460;SDS011;8341;42.048;24.650;2024-03-08T10:24:46;40.50;;;20.90;;
16460;SDS011;8341;42.048;24.650;2024-03-08T10:27:14;46.25;;;23.23;;
16460;SDS011;8341;42.048;24.650;2024-03-08T10:29:43;40.78;;;21.80;;
16460;SDS011;8341;42.048;24.650;2024-03-08T10:32:13;40.55;;;20.75;;
16460;SDS011;8341;42.048;24.650;2024-03-08T10:34:40;37.85;;;20.67;;
16460;SDS011;8341;42.048;24.650;2024-03-08T10:37:08;35.38;;;19.92;;
16460;SDS011;8341;42.048;24.650;2024-03-08T10:39:45;40.38;;;20.60;;
16460;SDS011;8341;42.048;24.650;2024-03-08T10:42:35;32.72;;;18.48;;
16460;SDS011;8341;42.048;24.650;2024-03-08T10:45:09;31.83;;;19.05;;
16460;SDS011;8341;42.048;24.650;2024-03-08T10:47:41;29.48;;;17.60;;
16460;SDS011;8341;42.048;24.650;2024-03-08T10:50:16;25.58;;;16.50;;
16460;SDS011;8341;42.048;24.650;2024-03-08T10:52:47;27.45;;;16.80;;
16460;SDS011;8341;42.048;24.650;2024-03-08T10:55:18;23.38;;;15.65;;
16460;SDS011;8341;42.048;24.650;2024-03-08T10:57:46;25.27;;;15.75;;
16460;SDS011;8341;42.048;24.650;2024-03-08T11:00:13;33.45;;;20.52;;
16460;SDS011;8341;42.048;24.650;2024-03-08T11:02:43;30.08;;;19.65;;
16460;SDS011;8341;42.048;24.650;2024-03-08T11:05:10;25.50;;;16.42;;
16460;SDS011;8341;42.048;24.650;2024-03-08T11:07:42;21.33;;;13.95;;
16460;SDS011;8341;42.048;24.650;2024-03-08T11:10:19;23.90;;;16.33;;
16460;SDS011;8341;42.048;24.650;2024-03-08T11:12:46;29.35;;;19.10;;
16460;SDS011;8341;42.048;24.650;2024-03-08T11:15:14;27.85;;;18.88;;
16460;SDS011;8341;42.048;24.650;2024-03-08T11:17:47;31.10;;;19.48;;
16460;SDS011;8341;42.048;24.650;2024-03-08T11:20:15;31.25;;;19.67;;
16460;SDS011;8341;42.048;24.650;2024-03-08T11:22:47;29.30;;;18.05;;
16460;SDS011;8341;42.048;24.650;2024-03-08T11:25:33;30.42;;;18.73;;
16460;SDS011;8341;42.048;24.650;2024-03-08T11:28:13;28.75;;;18.15;;
16460;SDS011;8341;42.048;24.650;2024-03-08T11:30:46;31.48;;;19.80;;
16460;SDS011;8341;42.048;24.650;2024-03-08T11:33:35;30.23;;;19.60;;
16460;SDS011;8341;42.048;24.650;2024-03-08T11:36:03;31.30;;;19.83;;
16460;SDS011;8341;42.048;24.650;2024-03-08T11:38:39;34.28;;;21.63;;
16460;SDS011;8341;42.048;24.650;2024-03-08T11:41:08;32.80;;;20.92;;
16460;SDS011;8341;42.048;24.650;2024-03-08T11:43:39;27.75;;;17.90;;
16460;SDS011;8341;42.048;24.650;2024-03-08T11:46:09;26.40;;;17.95;;
16460;SDS011;8341;42.048;24.650;2024-03-08T11:48:37;23.63;;;16.73;;
16460;SDS011;8341;42.048;24.650;2024-03-08T11:51:04;22.20;;;14.95;;
16460;SDS011;8341;42.048;24.650;2024-03-08T11:53:32;21.55;;;14.38;;
16460;SDS011;8341;42.048;24.650;2024-03-08T11:56:05;15.57;;;11.75;;
16460;SDS011;8341;42.048;24.650;2024-03-08T11:58:36;13.68;;;10.48;;
16460;SDS011;8341;42.048;24.650;2024-03-08T12:01:04;13.57;;;10.85;;
16460;SDS011;8341;42.048;24.650;2024-03-08T12:03:32;14.25;;;10.73;;
16460;SDS011;8341;42.048;24.650;2024-03-08T12:05:59;15.02;;;10.68;;
16460;SDS011;8341;42.048;24.650;2024-03-08T12:08:30;11.13;;;9.32;;
16460;SDS011;8341;42.048;24.650;2024-03-08T12:10:57;14.20;;;9.88;;
16460;SDS011;8341;42.048;24.650;2024-03-08T12:13:27;13.27;;;10.32;;
16460;SDS011;8341;42.048;24.650;2024-03-08T12:15:56;12.07;;;9.80;;
16460;SDS011;8341;42.048;24.650;2024-03-08T12:18:24;12.98;;;9.85;;
16460;SDS011;8341;42.048;24.650;2024-03-08T12:21:03;10.52;;;8.90;;
16460;SDS011;8341;42.048;24.650;2024-03-08T12:23:32;8.85;;;7.60;;
16460;SDS011;8341;42.048;24.650;2024-03-08T12:26:08;12.57;;;9.20;;
16460;SDS011;8341;42.048;24.650;2024-03-08T12:28:40;10.70;;;8.23;;
16460;SDS011;8341;42.048;24.650;2024-03-08T12:31:09;12.18;;;9.40;;
16460;SDS011;8341;42.048;24.650;2024-03-08T12:33:47;12.45;;;9.00;;
16460;SDS011;8341;42.048;24.650;2024-03-08T12:36:15;13.35;;;9.70;;
16460;SDS011;8341;42.048;24.650;2024-03-08T12:38:43;12.77;;;9.50;;
16460;SDS011;8341;42.048;24.650;2024-03-08T12:41:13;12.85;;;9.02;;
16460;SDS011;8341;42.048;24.650;2024-03-08T12:43:41;12.40;;;8.50;;
16460;SDS011;8341;42.048;24.650;2024-03-08T12:46:13;11.68;;;8.90;;
16460;SDS011;8341;42.048;24.650;2024-03-08T12:48:40;11.88;;;8.63;;
16460;SDS011;8341;42.048;24.650;2024-03-08T12:51:10;11.30;;;9.10;;
16460;SDS011;8341;42.048;24.650;2024-03-08T12:53:37;12.00;;;9.18;;
16460;SDS011;8341;42.048;24.650;2024-03-08T12:56:05;13.13;;;9.23;;
16460;SDS011;8341;42.048;24.650;2024-03-08T12:58:33;13.10;;;8.35;;
16460;SDS011;8341;42.048;24.650;2024-03-08T13:01:03;14.40;;;9.23;;
16460;SDS011;8341;42.048;24.650;2024-03-08T13:03:32;11.57;;;8.65;;
16460;SDS011;8341;42.048;24.650;2024-03-08T13:06:00;11.68;;;8.38;;
16460;SDS011;8341;42.048;24.650;2024-03-08T13:08:28;14.15;;;9.50;;
16460;SDS011;8341;42.048;24.650;2024-03-08T13:10:56;13.25;;;9.80;;
16460;SDS011;8341;42.048;24.650;2024-03-08T13:13:24;15.65;;;10.90;;
16460;SDS011;8341;42.048;24.650;2024-03-08T13:15:51;13.38;;;9.80;;
16460;SDS011;8341;42.048;24.650;2024-03-08T13:18:19;11.05;;;9.10;;
16460;SDS011;8341;42.048;24.650;2024-03-08T13:20:46;12.68;;;9.00;;
16460;SDS011;8341;42.048;24.650;2024-03-08T13:23:16;11.18;;;8.73;;
16460;SDS011;8341;42.048;24.650;2024-03-08T13:25:43;12.75;;;9.38;;
16460;SDS011;8341;42.048;24.650;2024-03-08T13:28:12;11.18;;;8.55;;
16460;SDS011;8341;42.048;24.650;2024-03-08T13:30:40;12.23;;;9.25;;
16460;SDS011;8341;42.048;24.650;2024-03-08T13:33:09;15.65;;;10.23;;
16460;SDS011;8341;42.048;24.650;2024-03-08T13:35:37;11.00;;;8.70;;
16460;SDS011;8341;42.048;24.650;2024-03-08T13:38:05;10.30;;;7.40;;
16460;SDS011;8341;42.048;24.650;2024-03-08T13:40:34;11.30;;;7.53;;
16460;SDS011;8341;42.048;24.650;2024-03-08T13:43:01;11.32;;;8.02;;
16460;SDS011;8341;42.048;24.650;2024-03-08T13:45:28;11.55;;;9.63;;
16460;SDS011;8341;42.048;24.650;2024-03-08T13:47:56;11.93;;;9.13;;
16460;SDS011;8341;42.048;24.650;2024-03-08T13:50:23;11.48;;;8.75;;
16460;SDS011;8341;42.048;24.650;2024-03-08T13:52:53;11.50;;;8.20;;
16460;SDS011;8341;42.048;24.650;2024-03-08T13:55:20;10.55;;;8.77;;
16460;SDS011;8341;42.048;24.650;2024-03-08T13:57:47;10.30;;;8.18;;
16460;SDS011;8341;42.048;24.650;2024-03-08T14:00:16;9.07;;;6.72;;
16460;SDS011;8341;42.048;24.650;2024-03-08T14:02:47;9.05;;;7.60;;
16460;SDS011;8341;42.048;24.650;2024-03-08T14:05:14;9.07;;;7.25;;
16460;SDS011;8341;42.048;24.650;2024-03-08T14:07:42;8.27;;;7.00;;
16460;SDS011;8341;42.048;24.650;2024-03-08T14:10:12;8.90;;;7.38;;
16460;SDS011;8341;42.048;24.650;2024-03-08T14:12:40;16.17;;;12.05;;
16460;SDS011;8341;42.048;24.650;2024-03-08T14:15:08;13.63;;;10.43;;
16460;SDS011;8341;42.048;24.650;2024-03-08T14:17:37;14.30;;;10.20;;
16460;SDS011;8341;42.048;24.650;2024-03-08T14:20:05;12.30;;;8.85;;
16460;SDS011;8341;42.048;24.650;2024-03-08T14:22:33;12.70;;;9.88;;
16460;SDS011;8341;42.048;24.650;2024-03-08T14:25:00;9.80;;;8.10;;
16460;SDS011;8341;42.048;24.650;2024-03-08T14:27:29;10.52;;;8.02;;
16460;SDS011;8341;42.048;24.650;2024-03-08T14:29:56;13.18;;;8.25;;